createdAt,value
2022-12-24T00:02:57.836Z,4.83
2022-12-24T00:05:46.264Z,6.35
2022-12-24T00:08:34.859Z,7.20
2022-12-24T00:11:22.814Z,7.70
2022-12-24T00:14:10.639Z,7.74
2022-12-24T00:16:58.422Z,6.56
2022-12-24T00:19:46.335Z,5.45
2022-12-24T00:22:34.033Z,4.65
2022-12-24T00:25:22.063Z,4.47
2022-12-24T00:28:10.339Z,5.61
2022-12-24T00:30:58.623Z,6.51
2022-12-24T00:33:47.358Z,7.07
2022-12-24T00:36:35.297Z,7.42
2022-12-24T00:39:23.255Z,7.29
2022-12-24T00:42:11.418Z,6.04
2022-12-24T00:44:59.318Z,5.00
2022-12-24T00:47:47.110Z,4.24
2022-12-24T00:50:35.282Z,4.28
2022-12-24T00:53:23.292Z,5.94
2022-12-24T00:56:11.403Z,6.74
2022-12-24T00:58:59.635Z,7.19
2022-12-24T01:01:47.749Z,7.49
2022-12-24T01:04:53.986Z,7.36
2022-12-24T01:07:44.713Z,6.02
2022-12-24T01:10:32.780Z,4.99
2022-12-24T01:13:20.802Z,4.66
2022-12-24T01:16:20.754Z,5.69
2022-12-24T01:19:09.273Z,6.58
2022-12-24T01:21:56.975Z,7.05
2022-12-24T01:24:45.305Z,7.37
2022-12-24T01:27:33.309Z,7.18
2022-12-24T01:30:21.124Z,5.90
2022-12-24T01:33:08.917Z,4.84
2022-12-24T01:35:56.544Z,4.41
2022-12-24T01:38:44.279Z,5.41
2022-12-24T01:41:52.557Z,6.46
2022-12-24T01:44:43.984Z,7.21
2022-12-24T01:47:31.946Z,7.65
2022-12-24T01:50:20.180Z,7.61
2022-12-24T01:53:10.186Z,6.37
2022-12-24T01:55:58.961Z,5.27
2022-12-24T01:58:52.505Z,4.52
2022-12-24T02:01:40.698Z,4.49
2022-12-24T02:04:43.044Z,5.80
2022-12-24T02:07:31.700Z,6.92
2022-12-24T02:10:19.730Z,7.59
2022-12-24T02:13:08.656Z,8.09
2022-12-24T02:16:34.474Z,8.52
2022-12-24T02:19:56.495Z,7.72
2022-12-24T02:23:19.943Z,6.31
2022-12-24T02:26:26.084Z,5.33
2022-12-24T02:30:00.294Z,4.71
2022-12-24T02:33:30.867Z,5.09
2022-12-24T02:36:28.516Z,6.55
2022-12-24T02:39:42.933Z,7.36
2022-12-24T02:42:39.790Z,7.91
2022-12-24T02:45:34.791Z,8.24
2022-12-24T02:48:25.470Z,8.64
2022-12-24T02:51:14.115Z,8.21
2022-12-24T02:54:02.545Z,6.97
2022-12-24T02:57:17.886Z,6.01
2022-12-24T03:00:15.890Z,5.21
2022-12-24T03:03:45.787Z,4.99
2022-12-24T03:06:59.868Z,6.33
2022-12-24T03:10:19.885Z,7.29
2022-12-24T03:13:18.093Z,7.92
2022-12-24T03:16:17.509Z,8.35
2022-12-24T03:19:05.988Z,8.57
2022-12-24T03:21:58.285Z,8.03
2022-12-24T03:24:46.655Z,6.80
2022-12-24T03:27:36.001Z,5.87
2022-12-24T03:30:23.901Z,5.17
2022-12-24T03:33:13.501Z,4.59
2022-12-24T03:36:01.881Z,4.10
2022-12-24T03:38:50.199Z,4.19
2022-12-24T03:41:39.235Z,6.34
2022-12-24T03:44:27.303Z,7.38
2022-12-24T03:47:15.150Z,7.45
2022-12-24T03:50:03.551Z,6.23
2022-12-24T03:52:51.176Z,5.14
2022-12-24T03:55:39.911Z,4.36
2022-12-24T03:58:28.075Z,3.78
2022-12-24T04:01:17.134Z,3.67
2022-12-24T04:04:05.188Z,4.85
2022-12-24T04:06:52.932Z,5.87
2022-12-24T04:09:41.549Z,6.56
2022-12-24T04:12:29.692Z,7.03
2022-12-24T04:15:17.889Z,7.26
2022-12-24T04:18:05.851Z,7.14
2022-12-24T04:20:53.723Z,5.96
2022-12-24T04:23:43.021Z,4.92
2022-12-24T04:26:30.786Z,4.15
2022-12-24T04:29:18.804Z,4.06
2022-12-24T04:32:06.735Z,5.57
2022-12-24T04:34:55.996Z,6.37
2022-12-24T04:37:44.346Z,6.72
2022-12-24T04:40:32.424Z,6.96
2022-12-24T04:43:21.058Z,7.10
2022-12-24T04:46:18.120Z,6.43
2022-12-24T04:49:06.380Z,5.21
2022-12-24T04:51:54.620Z,4.33
2022-12-24T04:54:42.592Z,3.92
2022-12-24T04:57:35.805Z,4.84
2022-12-24T05:00:23.963Z,5.63
2022-12-24T05:03:11.834Z,6.17
2022-12-24T05:06:05.789Z,6.52
2022-12-24T05:08:56.132Z,6.76
2022-12-24T05:11:45.181Z,6.47
2022-12-24T05:14:33.536Z,5.19
2022-12-24T05:17:22.352Z,4.15
2022-12-24T05:20:10.457Z,3.40
2022-12-24T05:23:17.019Z,3.28
2022-12-24T05:26:24.529Z,4.56
2022-12-24T05:29:15.544Z,5.52
2022-12-24T05:32:03.729Z,6.05
2022-12-24T05:34:51.638Z,6.35
2022-12-24T05:37:39.935Z,6.49
2022-12-24T05:40:28.033Z,5.58
2022-12-24T05:43:16.132Z,4.30
2022-12-24T05:46:12.945Z,3.34
2022-12-24T05:49:01.477Z,3.10
2022-12-24T05:51:49.398Z,4.21
2022-12-24T05:54:37.257Z,5.14
2022-12-24T05:57:25.353Z,5.73
2022-12-24T06:00:13.810Z,6.06
2022-12-24T06:03:02.056Z,6.33
2022-12-24T06:06:21.290Z,6.68
2022-12-24T06:09:09.173Z,5.71
2022-12-24T06:11:57.464Z,4.53
2022-12-24T06:14:45.563Z,3.69
2022-12-24T06:17:33.703Z,3.40
2022-12-24T06:20:23.378Z,4.47
2022-12-24T06:23:11.778Z,5.42
2022-12-24T06:26:01.197Z,6.16
2022-12-24T06:28:50.714Z,6.57
2022-12-24T06:31:38.276Z,6.52
2022-12-24T06:34:25.958Z,5.34
2022-12-24T06:37:18.520Z,4.31
2022-12-24T06:40:07.252Z,3.58
2022-12-24T06:42:55.591Z,3.38
2022-12-24T06:45:48.074Z,4.46
2022-12-24T06:48:35.632Z,5.48
2022-12-24T06:51:23.542Z,6.10
2022-12-24T06:54:11.306Z,6.52
2022-12-24T06:56:59.308Z,6.87
2022-12-24T06:59:47.361Z,6.72
2022-12-24T07:02:35.298Z,5.50
2022-12-24T07:05:23.319Z,4.46
2022-12-24T07:08:11.081Z,3.72
2022-12-24T07:11:00.272Z,3.55
2022-12-24T07:13:49.379Z,4.67
2022-12-24T07:16:37.281Z,5.56
2022-12-24T07:19:25.439Z,6.15
2022-12-24T07:22:15.766Z,6.58
2022-12-24T07:25:04.349Z,6.49
2022-12-24T07:27:52.529Z,5.29
2022-12-24T07:30:40.578Z,4.30
2022-12-24T07:33:29.168Z,3.62
2022-12-24T07:36:22.616Z,3.46
2022-12-24T07:39:10.593Z,4.63
2022-12-24T07:41:58.495Z,5.63
2022-12-24T07:44:46.498Z,6.24
2022-12-24T07:47:35.574Z,6.68
2022-12-24T07:50:23.767Z,7.05
2022-12-24T07:53:11.846Z,7.37
2022-12-24T07:55:59.845Z,7.01
2022-12-24T07:58:48.044Z,5.90
2022-12-24T08:01:36.037Z,5.05
2022-12-24T08:04:24.292Z,4.46
2022-12-24T08:07:12.210Z,4.01
2022-12-24T08:10:00.174Z,4.22
2022-12-24T08:12:48.474Z,5.65
2022-12-24T08:15:36.738Z,6.49
2022-12-24T08:18:24.979Z,7.10
2022-12-24T08:21:12.916Z,7.61
2022-12-24T08:24:00.981Z,7.66
2022-12-24T08:26:48.866Z,6.82
2022-12-24T08:29:36.558Z,6.44
2022-12-24T08:32:24.440Z,6.49
2022-12-24T08:35:12.473Z,6.64
2022-12-24T08:38:00.751Z,8.61
2022-12-24T08:40:50.161Z,10.53
2022-12-24T08:43:38.344Z,12.24
2022-12-24T08:46:26.719Z,13.08
2022-12-24T08:49:14.838Z,12.24
2022-12-24T08:52:02.981Z,11.18
2022-12-24T08:54:50.690Z,10.33
2022-12-24T08:57:38.581Z,9.95
2022-12-24T09:00:26.982Z,10.63
2022-12-24T09:03:19.526Z,10.80
2022-12-24T09:06:11.943Z,9.80
2022-12-24T09:08:59.996Z,8.86
2022-12-24T09:11:48.030Z,8.11
2022-12-24T09:14:36.322Z,8.04
2022-12-24T09:17:24.331Z,9.19
2022-12-24T09:20:12.550Z,10.19
2022-12-24T09:23:00.433Z,11.31
2022-12-24T09:25:48.527Z,11.47
2022-12-24T09:28:36.591Z,12.47
2022-12-24T09:31:24.845Z,15.09
2022-12-24T09:34:12.685Z,16.89
2022-12-24T09:37:02.484Z,17.54
2022-12-24T09:39:50.221Z,17.94
2022-12-24T09:42:55.024Z,18.30
2022-12-24T09:46:13.573Z,18.81
2022-12-24T09:49:08.820Z,19.43
2022-12-24T09:52:05.274Z,19.81
2022-12-24T09:55:23.877Z,20.13
2022-12-24T09:58:37.690Z,20.56
2022-12-24T10:01:26.236Z,21.08
2022-12-24T10:04:19.018Z,21.50
2022-12-24T10:07:58.543Z,21.92
2022-12-24T10:10:55.568Z,22.30
2022-12-24T10:14:23.847Z,22.50
2022-12-24T10:18:22.448Z,22.85
2022-12-24T10:21:23.293Z,23.18
2022-12-24T10:24:50.923Z,23.45
2022-12-24T10:27:42.495Z,23.84
2022-12-24T10:30:30.822Z,24.15
2022-12-24T10:33:40.152Z,24.16
2022-12-24T10:36:31.674Z,23.99
2022-12-24T10:39:24.630Z,23.92
2022-12-24T10:42:15.540Z,24.02
2022-12-24T10:45:07.990Z,23.96
2022-12-24T10:48:01.674Z,23.87
2022-12-24T10:51:13.400Z,23.89
2022-12-24T10:54:28.079Z,23.99
2022-12-24T10:57:27.086Z,23.92
2022-12-24T11:00:28.582Z,23.88
2022-12-24T11:03:30.818Z,23.63
2022-12-24T11:06:21.276Z,23.42
2022-12-24T11:09:25.880Z,23.40
2022-12-24T11:12:25.916Z,23.36
2022-12-24T11:15:22.516Z,23.00
2022-12-24T11:18:15.933Z,22.58
2022-12-24T11:21:06.223Z,22.59
2022-12-24T11:24:26.612Z,22.54
2022-12-24T11:27:33.809Z,21.48
2022-12-24T11:30:31.903Z,20.16
2022-12-24T11:33:21.647Z,18.89
2022-12-24T11:36:13.939Z,17.98
2022-12-24T11:39:01.618Z,17.53
2022-12-24T11:41:51.547Z,17.29
2022-12-24T11:44:49.519Z,17.00
2022-12-24T11:47:42.956Z,16.72
2022-12-24T11:50:35.868Z,16.47
2022-12-24T11:53:30.920Z,16.39
2022-12-24T11:56:31.375Z,16.29
2022-12-24T11:59:38.437Z,15.17
2022-12-24T12:02:35.586Z,13.65
2022-12-24T12:05:33.533Z,12.30
2022-12-24T12:08:22.957Z,11.22
2022-12-24T12:11:14.779Z,10.39
2022-12-24T12:14:04.906Z,9.69
2022-12-24T12:17:04.610Z,9.06
2022-12-24T12:20:12.614Z,8.55
2022-12-24T12:23:06.741Z,8.30
2022-12-24T12:26:21.998Z,8.14
2022-12-24T12:29:36.033Z,8.21
2022-12-24T12:32:41.569Z,8.16
2022-12-24T12:35:40.007Z,7.82
2022-12-24T12:38:32.277Z,7.45
2022-12-24T12:41:43.883Z,7.08
2022-12-24T12:45:10.320Z,6.72
2022-12-24T12:48:03.880Z,6.33
2022-12-24T12:51:13.727Z,6.01
2022-12-24T12:54:22.965Z,5.72
2022-12-24T12:57:17.187Z,5.52
2022-12-24T13:00:11.971Z,5.37
2022-12-24T13:03:30.533Z,5.21
2022-12-24T13:06:36.188Z,4.97
2022-12-24T13:10:03.548Z,4.77
2022-12-24T13:13:37.772Z,4.63
2022-12-24T13:17:29.111Z,4.48
2022-12-24T13:20:46.874Z,4.24
2022-12-24T13:23:35.393Z,4.04
2022-12-24T13:26:23.608Z,3.88
2022-12-24T13:29:57.239Z,3.72
2022-12-24T13:32:54.111Z,5.02
2022-12-24T13:36:06.200Z,7.42
2022-12-24T13:38:57.968Z,7.68
2022-12-24T13:41:52.432Z,6.65
2022-12-24T13:44:40.573Z,5.70
2022-12-24T13:47:32.592Z,5.08
2022-12-24T13:50:30.038Z,4.59
2022-12-24T13:53:40.848Z,4.19
2022-12-24T13:56:31.876Z,3.84
2022-12-24T13:59:39.057Z,3.57
2022-12-24T14:02:32.615Z,3.31
2022-12-24T14:05:44.076Z,3.10
2022-12-24T14:08:45.755Z,3.79
2022-12-24T14:11:53.705Z,5.73
2022-12-24T14:14:42.570Z,6.59
2022-12-24T14:17:31.168Z,7.12
2022-12-24T14:20:19.262Z,7.47
2022-12-24T14:23:16.399Z,7.77
2022-12-24T14:26:13.053Z,8.02
2022-12-24T14:29:08.369Z,7.86
2022-12-24T14:31:59.509Z,6.61
2022-12-24T14:34:47.696Z,5.53
2022-12-24T14:37:36.869Z,4.77
2022-12-24T14:41:05.914Z,4.13
2022-12-24T14:44:19.784Z,3.51
2022-12-24T14:47:25.929Z,3.10
2022-12-24T14:50:50.040Z,3.35
2022-12-24T14:54:11.013Z,4.85
2022-12-24T14:57:12.854Z,5.89
2022-12-24T15:00:06.385Z,6.58
2022-12-24T15:02:54.598Z,6.97
2022-12-24T15:05:43.495Z,7.22
2022-12-24T15:08:45.737Z,7.45
2022-12-24T15:11:33.776Z,7.80
2022-12-24T15:14:25.305Z,7.71
2022-12-24T15:17:13.640Z,6.42
2022-12-24T15:20:04.192Z,5.32
2022-12-24T15:22:56.268Z,4.53
2022-12-24T15:25:44.406Z,3.93
2022-12-24T15:28:38.271Z,3.45
2022-12-24T15:31:28.758Z,3.39
2022-12-24T15:34:37.715Z,4.52
2022-12-24T15:37:37.203Z,5.58
2022-12-24T15:40:26.576Z,6.45
2022-12-24T15:43:14.681Z,7.00
2022-12-24T15:46:02.969Z,7.36
2022-12-24T15:48:52.388Z,7.75
2022-12-24T15:51:40.796Z,8.03
2022-12-24T15:54:29.032Z,7.95
2022-12-24T15:57:34.248Z,6.70
2022-12-24T16:00:31.003Z,5.45
2022-12-24T16:03:23.501Z,4.61
2022-12-24T16:06:11.950Z,3.99
2022-12-24T16:08:59.628Z,3.51
2022-12-24T16:11:47.690Z,4.04
2022-12-24T16:14:35.440Z,5.96
2022-12-24T16:17:36.022Z,6.73
2022-12-24T16:20:24.018Z,7.19
2022-12-24T16:23:25.812Z,7.50
2022-12-24T16:26:14.317Z,7.75
2022-12-24T16:29:02.574Z,7.66
2022-12-24T16:31:55.753Z,6.38
2022-12-24T16:34:43.927Z,5.22
2022-12-24T16:37:32.137Z,4.38
2022-12-24T16:40:26.507Z,3.77
2022-12-24T16:43:34.521Z,3.25
2022-12-24T16:46:22.492Z,3.32
2022-12-24T16:49:19.331Z,4.62
2022-12-24T16:52:16.922Z,5.69
2022-12-24T16:55:05.470Z,6.42
2022-12-24T16:57:53.856Z,6.89
2022-12-24T17:00:44.719Z,7.30
2022-12-24T17:03:32.936Z,7.50
2022-12-24T17:06:20.927Z,6.42
2022-12-24T17:09:11.085Z,5.17
2022-12-24T17:11:58.631Z,4.25
2022-12-24T17:14:46.407Z,3.61
2022-12-24T17:17:35.019Z,3.13
2022-12-24T17:20:24.541Z,3.95
2022-12-24T17:23:12.680Z,5.14
2022-12-24T17:26:00.589Z,5.92
2022-12-24T17:28:48.462Z,6.46
2022-12-24T17:31:39.294Z,6.86
2022-12-24T17:34:27.335Z,7.23
2022-12-24T17:37:15.424Z,7.46
2022-12-24T17:40:04.205Z,7.32
2022-12-24T17:42:52.599Z,6.06
2022-12-24T17:45:42.381Z,4.90
2022-12-24T17:48:30.707Z,4.08
2022-12-24T17:51:22.265Z,3.46
2022-12-24T17:54:10.286Z,3.38
2022-12-24T17:56:58.863Z,4.54
2022-12-24T17:59:46.719Z,5.58
2022-12-24T18:02:35.128Z,6.20
2022-12-24T18:05:23.497Z,6.64
2022-12-24T18:08:11.288Z,6.98
2022-12-24T18:10:59.356Z,7.28
2022-12-24T18:13:48.974Z,7.15
2022-12-24T18:16:41.158Z,5.87
2022-12-24T18:19:29.409Z,4.69
2022-12-24T18:22:17.534Z,3.87
2022-12-24T18:25:06.745Z,3.26
2022-12-24T18:27:54.941Z,3.18
2022-12-24T18:30:42.751Z,4.38
2022-12-24T18:33:32.630Z,5.43
2022-12-24T18:36:21.259Z,6.15
2022-12-24T18:39:09.274Z,6.33
2022-12-24T18:41:57.065Z,5.01
2022-12-24T18:44:45.957Z,3.74
2022-12-24T18:47:34.437Z,2.97
2022-12-24T18:50:22.643Z,2.88
2022-12-24T18:53:11.331Z,4.08
2022-12-24T18:56:10.885Z,5.21
2022-12-24T18:59:01.962Z,5.97
2022-12-24T19:01:50.312Z,6.30
2022-12-24T19:04:38.646Z,6.70
2022-12-24T19:07:26.809Z,6.61
2022-12-24T19:10:14.982Z,5.34
2022-12-24T19:13:02.691Z,4.31
2022-12-24T19:15:51.035Z,3.57
2022-12-24T19:18:39.361Z,3.01
2022-12-24T19:21:27.339Z,3.57
2022-12-24T19:24:15.528Z,4.77
2022-12-24T19:27:03.987Z,5.61
2022-12-24T19:29:51.781Z,6.21
2022-12-24T19:32:40.072Z,6.62
2022-12-24T19:35:29.096Z,6.58
2022-12-24T19:38:17.265Z,5.38
2022-12-24T19:41:16.102Z,4.34
2022-12-24T19:44:04.003Z,3.54
2022-12-24T19:46:52.331Z,3.15
2022-12-24T19:49:40.843Z,4.11
2022-12-24T19:52:29.091Z,5.19
2022-12-24T19:55:17.098Z,5.83
2022-12-24T19:58:05.289Z,6.21
2022-12-24T20:00:54.170Z,6.50
2022-12-24T20:03:44.032Z,6.35
2022-12-24T20:06:35.127Z,5.14
2022-12-24T20:09:23.303Z,4.03
2022-12-24T20:12:11.230Z,3.62
2022-12-24T20:14:59.013Z,4.55
2022-12-24T20:17:52.140Z,5.40
2022-12-24T20:20:41.567Z,5.92
2022-12-24T20:23:30.992Z,6.24
2022-12-24T20:26:23.205Z,6.02
2022-12-24T20:29:12.853Z,4.74
2022-12-24T20:32:01.144Z,3.56
2022-12-24T20:34:49.284Z,2.73
2022-12-24T20:37:43.709Z,2.91
2022-12-24T20:40:33.781Z,4.04
2022-12-24T20:43:24.464Z,4.70
2022-12-24T20:46:12.555Z,5.02
2022-12-24T20:49:00.673Z,4.67
2022-12-24T20:51:48.655Z,3.59
2022-12-24T20:54:36.558Z,2.67
2022-12-24T20:57:27.853Z,2.36
2022-12-24T21:00:20.012Z,3.40
2022-12-24T21:03:07.966Z,4.31
2022-12-24T21:05:56.175Z,4.90
2022-12-24T21:08:54.573Z,5.28
2022-12-24T21:11:48.195Z,5.57
2022-12-24T21:14:36.535Z,5.79
2022-12-24T21:17:24.516Z,6.03
2022-12-24T21:20:13.566Z,5.71
2022-12-24T21:23:02.609Z,4.55
2022-12-24T21:26:02.008Z,3.48
2022-12-24T21:28:50.667Z,3.07
2022-12-24T21:31:38.885Z,4.23
2022-12-24T21:34:26.720Z,5.10
2022-12-24T21:37:14.796Z,5.67
2022-12-24T21:40:04.716Z,6.04
2022-12-24T21:42:52.656Z,6.25
2022-12-24T21:45:41.715Z,6.51
2022-12-24T21:48:48.660Z,6.65
2022-12-24T21:51:36.977Z,5.36
2022-12-24T21:54:28.737Z,4.07
2022-12-24T21:57:55.168Z,3.28
2022-12-24T22:00:43.449Z,4.17
2022-12-24T22:03:31.660Z,5.19
2022-12-24T22:06:38.087Z,5.87
2022-12-24T22:09:44.805Z,6.33
2022-12-24T22:12:34.251Z,6.54
2022-12-24T22:15:22.940Z,6.75
2022-12-24T22:18:11.312Z,6.96
2022-12-24T22:21:02.838Z,6.76
2022-12-24T22:23:50.823Z,5.56
2022-12-24T22:26:38.812Z,4.55
2022-12-24T22:29:26.466Z,3.76
2022-12-24T22:32:14.307Z,3.48
2022-12-24T22:35:02.378Z,4.40
2022-12-24T22:37:53.160Z,5.22
2022-12-24T22:40:45.532Z,5.69
2022-12-24T22:43:33.748Z,5.92
2022-12-24T22:46:22.134Z,5.95
2022-12-24T22:49:11.531Z,5.41
2022-12-24T22:51:59.607Z,4.28
2022-12-24T22:54:47.943Z,3.42
2022-12-24T22:57:36.270Z,3.10
2022-12-24T23:00:45.286Z,4.01
2022-12-24T23:03:33.022Z,4.72
2022-12-24T23:06:20.844Z,5.21
2022-12-24T23:09:12.252Z,5.65
2022-12-24T23:12:00.132Z,6.01
2022-12-24T23:14:57.022Z,6.02
2022-12-24T23:17:47.944Z,4.94
2022-12-24T23:20:43.229Z,3.73
2022-12-24T23:23:36.561Z,3.12
2022-12-24T23:26:25.768Z,3.95
2022-12-24T23:29:13.621Z,4.70
2022-12-24T23:32:01.349Z,5.10
2022-12-24T23:34:49.240Z,5.38
2022-12-24T23:37:37.112Z,5.62
2022-12-24T23:40:25.427Z,5.73
2022-12-24T23:43:13.504Z,5.69
2022-12-24T23:46:02.573Z,4.68
2022-12-24T23:48:55.269Z,3.54
2022-12-24T23:51:43.646Z,2.75
2022-12-24T23:54:31.698Z,3.16
2022-12-24T23:57:19.507Z,4.09
